Time;durP1;ratioP1;P1;durP2;ratioP2;P2;SDS_P1;SDS_P2;PMS_P1;PMS_P2;Temp;Humidity;BMP_temperature;BMP_pressure;BME280_temperature;BME280_humidity;BME280_pressure;Samples;Min_cycle;Max_cycle;Signal;HPM_P1;HPM_P2
2023/05/27 00:01:40;;;;;;;7.30;4.43;;;;;;;;;;5013572;28;20180;-73
2023/05/27 00:04:06;;;;;;;5.63;3.37;;;;;;;;;;5009455;28;20485;-74
2023/05/27 00:06:31;;;;;;;6.63;4.20;;;;;;;;;;5015692;28;20184;-73
2023/05/27 00:08:56;;;;;;;6.83;3.67;;;;;;;;;;5012224;28;20180;-73
2023/05/27 00:11:21;;;;;;;10.43;3.97;;;;;;;;;;5008117;28;20249;-73
2023/05/27 00:13:46;;;;;;;8.23;3.90;;;;;;;;;;5012796;28;20177;-73
2023/05/27 00:16:12;;;;;;;5.67;3.67;;;;;;;;;;5016422;28;20164;-73
2023/05/27 00:18:37;;;;;;;5.60;3.60;;;;;;;;;;5008745;28;20260;-73
2023/05/27 00:21:04;;;;;;;10.43;3.53;;;;;;;;;;5025533;28;20186;-74
2023/05/27 00:23:29;;;;;;;12.53;4.60;;;;;;;;;;5009616;28;20259;-73
2023/05/27 00:25:54;;;;;;;6.23;4.03;;;;;;;;;;5010368;28;20276;-73
2023/05/27 00:28:20;;;;;;;9.97;3.90;;;;;;;;;;5008752;28;20186;-73
2023/05/27 00:30:45;;;;;;;8.67;3.50;;;;;;;;;;5009936;28;20206;-73
2023/05/27 00:33:10;;;;;;;9.63;4.30;;;;;;;;;;5015491;28;20176;-73
2023/05/27 00:35:35;;;;;;;5.03;3.20;;;;;;;;;;5011963;28;20200;-73
2023/05/27 00:38:00;;;;;;;6.77;3.97;;;;;;;;;;5015004;28;20208;-73
2023/05/27 00:40:26;;;;;;;7.23;3.77;;;;;;;;;;5009170;28;20213;-73
2023/05/27 00:42:51;;;;;;;11.93;4.23;;;;;;;;;;5017048;28;20241;-73
2023/05/27 00:45:17;;;;;;;8.10;4.77;;;;;;;;;;5009348;28;20172;-73
2023/05/27 00:47:42;;;;;;;9.17;4.63;;;;;;;;;;5006367;28;20179;-73
2023/05/27 00:50:08;;;;;;;11.07;4.13;;;;;;;;;;5024113;28;20215;-73
2023/05/27 00:52:33;;;;;;;9.07;3.77;;;;;;;;;;5010314;28;20180;-73
2023/05/27 00:54:59;;;;;;;8.20;4.37;;;;;;;;;;5008854;28;20239;-73
2023/05/27 00:57:25;;;;;;;6.47;3.40;;;;;;;;;;5001391;28;20183;-73
2023/05/27 00:59:51;;;;;;;8.83;3.53;;;;;;;;;;5007488;28;20199;-73
2023/05/27 01:02:16;;;;;;;7.33;3.63;;;;;;;;;;5008625;28;20285;-73
2023/05/27 01:04:46;;;;;;;8.47;4.70;;;;;;;;;;5008937;28;20265;-73
2023/05/27 01:07:22;;;;;;;7.93;4.63;;;;;;;;;;5010211;28;20210;-73
2023/05/27 01:10:06;;;;;;;9.60;3.30;;;;;;;;;;5011995;28;20206;-73
2023/05/27 01:12:44;;;;;;;7.97;4.00;;;;;;;;;;5011996;28;20198;-73
2023/05/27 01:15:10;;;;;;;8.33;3.77;;;;;;;;;;5008400;28;20187;-73
2023/05/27 01:17:37;;;;;;;6.17;4.00;;;;;;;;;;5011812;28;20183;-73
2023/05/27 01:20:05;;;;;;;6.33;3.53;;;;;;;;;;5012438;28;20194;-73
2023/05/27 01:22:31;;;;;;;7.37;4.00;;;;;;;;;;5007231;28;20192;-73
2023/05/27 01:24:57;;;;;;;7.87;4.07;;;;;;;;;;5011011;28;20180;-73
2023/05/27 01:27:24;;;;;;;9.23;4.50;;;;;;;;;;5012169;28;20195;-73
2023/05/27 01:29:50;;;;;;;6.33;3.43;;;;;;;;;;5011795;28;20201;-74
2023/05/27 01:32:16;;;;;;;6.17;3.70;;;;;;;;;;5005238;28;20191;-73
2023/05/27 01:34:58;;;;;;;7.97;3.70;;;;;;;;;;5011436;28;20179;-73
2023/05/27 01:37:25;;;;;;;7.17;3.63;;;;;;;;;;5024531;28;20217;-73
2023/05/27 01:39:50;;;;;;;6.47;3.60;;;;;;;;;;5010717;28;20268;-73
2023/05/27 01:42:16;;;;;;;14.13;4.00;;;;;;;;;;5010787;28;20305;-73
2023/05/27 01:44:42;;;;;;;6.27;3.70;;;;;;;;;;5012059;28;20310;-73
2023/05/27 01:47:07;;;;;;;9.80;4.43;;;;;;;;;;5011480;28;20243;-73
2023/05/27 01:49:32;;;;;;;5.67;3.53;;;;;;;;;;5010661;28;20262;-73
2023/05/27 01:51:57;;;;;;;8.90;3.73;;;;;;;;;;5011088;28;20175;-73
2023/05/27 01:54:22;;;;;;;8.13;3.73;;;;;;;;;;5009798;28;20176;-73
2023/05/27 01:56:48;;;;;;;7.03;3.83;;;;;;;;;;5051554;28;20235;-73
2023/05/27 01:59:13;;;;;;;5.63;3.60;;;;;;;;;;5050352;28;20227;-73
2023/05/27 02:01:38;;;;;;;5.63;4.03;;;;;;;;;;5051259;28;20185;-73
2023/05/27 02:04:04;;;;;;;6.40;3.93;;;;;;;;;;5049523;28;20217;-73
2023/05/27 02:06:29;;;;;;;8.17;4.67;;;;;;;;;;5041749;28;20199;-73
2023/05/27 02:08:54;;;;;;;5.77;3.87;;;;;;;;;;5035220;28;20178;-73
2023/05/27 02:11:20;;;;;;;7.70;3.50;;;;;;;;;;5052578;28;20262;-73
2023/05/27 02:13:45;;;;;;;6.97;3.70;;;;;;;;;;5034180;28;20178;-73
2023/05/27 02:16:12;;;;;;;7.83;3.47;;;;;;;;;;5052277;28;20238;-73
2023/05/27 02:18:37;;;;;;;7.13;3.83;;;;;;;;;;5036723;28;20204;-73
2023/05/27 02:21:05;;;;;;;6.47;3.40;;;;;;;;;;5050037;28;20169;-73
2023/05/27 02:23:31;;;;;;;7.77;3.63;;;;;;;;;;5035685;28;20182;-73
2023/05/27 02:25:56;;;;;;;7.33;3.63;;;;;;;;;;5050850;28;20192;-73
2023/05/27 02:28:22;;;;;;;8.63;4.13;;;;;;;;;;5033288;28;20174;-73
2023/05/27 02:30:47;;;;;;;7.70;3.70;;;;;;;;;;5051580;28;20212;-73
2023/05/27 02:33:12;;;;;;;9.17;4.50;;;;;;;;;;5051748;28;20182;-73
2023/05/27 02:35:37;;;;;;;11.73;3.87;;;;;;;;;;5059770;28;20268;-73
2023/05/27 02:38:03;;;;;;;7.27;3.83;;;;;;;;;;5049514;28;20176;-73
2023/05/27 02:40:28;;;;;;;11.93;4.10;;;;;;;;;;5044113;28;20187;-73
2023/05/27 02:42:53;;;;;;;7.73;3.90;;;;;;;;;;5033649;28;20241;-73
2023/05/27 02:45:19;;;;;;;8.47;3.83;;;;;;;;;;5027115;28;20189;-73
2023/05/27 02:47:44;;;;;;;8.67;4.17;;;;;;;;;;5032901;28;20238;-73
2023/05/27 02:50:10;;;;;;;7.13;3.47;;;;;;;;;;5034603;28;20261;-73
2023/05/27 02:52:35;;;;;;;10.77;4.47;;;;;;;;;;5049903;28;20176;-73
2023/05/27 02:55:00;;;;;;;12.00;4.23;;;;;;;;;;5049701;28;20219;-73
2023/05/27 02:57:25;;;;;;;8.10;4.40;;;;;;;;;;5050924;28;20267;-73
2023/05/27 02:59:50;;;;;;;8.37;4.30;;;;;;;;;;5049320;28;20194;-73
2023/05/27 03:02:16;;;;;;;9.70;4.77;;;;;;;;;;5026212;28;20200;-73
2023/05/27 03:04:41;;;;;;;10.30;4.30;;;;;;;;;;5049388;28;20183;-73
2023/05/27 03:07:06;;;;;;;10.67;3.90;;;;;;;;;;5051180;28;20180;-73
2023/05/27 03:09:31;;;;;;;8.50;4.30;;;;;;;;;;5051473;28;20181;-73
2023/05/27 03:11:57;;;;;;;7.40;3.77;;;;;;;;;;5034902;28;20175;-73
2023/05/27 03:14:22;;;;;;;6.57;3.57;;;;;;;;;;5034131;28;20214;-73
2023/05/27 03:16:48;;;;;;;11.20;4.40;;;;;;;;;;5049260;28;20195;-73
2023/05/27 03:19:13;;;;;;;8.23;4.10;;;;;;;;;;5035574;28;20183;-73
2023/05/27 03:21:38;;;;;;;7.40;3.63;;;;;;;;;;5031258;28;20187;-73
2023/05/27 03:24:03;;;;;;;9.70;4.50;;;;;;;;;;5049730;28;20190;-73
2023/05/27 03:26:29;;;;;;;11.37;3.87;;;;;;;;;;5032081;28;20211;-73
2023/05/27 03:28:54;;;;;;;8.67;3.90;;;;;;;;;;5032795;28;20179;-73
2023/05/27 03:31:19;;;;;;;9.27;4.20;;;;;;;;;;5048664;28;20210;-73
2023/05/27 03:33:45;;;;;;;9.70;4.57;;;;;;;;;;5032582;28;20185;-73
2023/05/27 03:36:10;;;;;;;9.10;3.87;;;;;;;;;;5047377;28;20303;-73
2023/05/27 03:38:35;;;;;;;9.37;4.10;;;;;;;;;;5050271;28;20249;-73
2023/05/27 03:41:00;;;;;;;5.87;3.57;;;;;;;;;;5049269;28;20184;-73
2023/05/27 03:43:25;;;;;;;8.17;3.97;;;;;;;;;;5033302;28;20186;-73
2023/05/27 03:45:51;;;;;;;6.93;3.70;;;;;;;;;;5032589;28;20286;-73
2023/05/27 03:48:16;;;;;;;8.47;4.37;;;;;;;;;;5046231;28;20190;-73
2023/05/27 03:50:41;;;;;;;11.70;4.40;;;;;;;;;;5034802;28;20237;-73
2023/05/27 03:53:06;;;;;;;8.33;4.23;;;;;;;;;;5035194;28;20175;-73
2023/05/27 03:55:31;;;;;;;11.03;4.27;;;;;;;;;;5023955;28;20228;-73
2023/05/27 03:57:57;;;;;;;13.70;4.20;;;;;;;;;;5007641;28;20212;-73
2023/05/27 04:00:22;;;;;;;7.00;4.00;;;;;;;;;;5008787;28;20212;-73
2023/05/27 04:02:47;;;;;;;9.07;3.80;;;;;;;;;;5006743;28;20212;-73
2023/05/27 04:05:12;;;;;;;9.47;4.03;;;;;;;;;;5008882;28;20179;-73
2023/05/27 04:07:37;;;;;;;10.13;4.20;;;;;;;;;;5007921;28;20189;-73
2023/05/27 04:10:03;;;;;;;10.23;4.70;;;;;;;;;;5008542;28;20204;-73
2023/05/27 04:12:28;;;;;;;11.50;4.07;;;;;;;;;;5010624;28;20194;-73
2023/05/27 04:14:53;;;;;;;8.63;4.10;;;;;;;;;;5008719;28;20175;-73
2023/05/27 04:17:18;;;;;;;7.87;4.27;;;;;;;;;;5007811;28;20255;-73
2023/05/27 04:19:44;;;;;;;9.10;3.67;;;;;;;;;;5006847;28;20176;-73
2023/05/27 04:22:09;;;;;;;8.97;4.17;;;;;;;;;;5007172;28;20195;-73
2023/05/27 04:24:35;;;;;;;9.33;4.73;;;;;;;;;;5003115;28;20186;-73
2023/05/27 04:27:02;;;;;;;7.23;3.93;;;;;;;;;;5008266;28;20239;-73
2023/05/27 04:29:27;;;;;;;8.47;4.43;;;;;;;;;;5001882;28;20189;-73
2023/05/27 04:31:52;;;;;;;6.50;3.37;;;;;;;;;;5007249;28;20256;-73
2023/05/27 04:34:18;;;;;;;18.00;4.57;;;;;;;;;;5010032;28;20200;-73
2023/05/27 04:36:43;;;;;;;16.87;4.80;;;;;;;;;;5002704;28;20176;-73
2023/05/27 04:39:11;;;;;;;14.97;4.27;;;;;;;;;;5006098;28;20200;-73
2023/05/27 04:41:36;;;;;;;11.60;4.50;;;;;;;;;;5008985;28;20223;-73
2023/05/27 04:44:01;;;;;;;8.43;3.93;;;;;;;;;;5010389;28;20203;-73
2023/05/27 04:46:27;;;;;;;11.80;4.30;;;;;;;;;;5011637;28;20201;-73
2023/05/27 04:48:52;;;;;;;9.13;4.40;;;;;;;;;;5011835;28;20264;-73
2023/05/27 04:51:18;;;;;;;9.37;4.47;;;;;;;;;;5010510;28;20295;-73
2023/05/27 04:53:44;;;;;;;8.13;3.73;;;;;;;;;;5012640;28;20177;-73
2023/05/27 04:56:10;;;;;;;10.37;4.13;;;;;;;;;;5039152;28;20235;-73
2023/05/27 04:58:36;;;;;;;11.17;5.10;;;;;;;;;;5051609;28;20187;-73
2023/05/27 05:01:01;;;;;;;9.87;4.40;;;;;;;;;;5034565;28;20179;-75
2023/05/27 05:03:36;;;;;;;8.43;3.93;;;;;;;;;;5050514;28;20264;-75
2023/05/27 05:06:03;;;;;;;8.27;3.90;;;;;;;;;;5035040;28;20202;-75
2023/05/27 05:08:28;;;;;;;12.30;4.07;;;;;;;;;;5051383;28;20182;-75
2023/05/27 05:10:53;;;;;;;14.40;4.40;;;;;;;;;;5032760;28;20204;-75
2023/05/27 05:13:19;;;;;;;10.30;4.33;;;;;;;;;;5051198;28;20176;-75
2023/05/27 05:15:44;;;;;;;10.80;3.97;;;;;;;;;;5048773;28;20244;-75
2023/05/27 05:18:10;;;;;;;9.27;4.20;;;;;;;;;;5036240;28;20267;-75
2023/05/27 05:20:36;;;;;;;10.43;4.63;;;;;;;;;;5052200;28;20203;-75
2023/05/27 05:23:01;;;;;;;13.60;5.00;;;;;;;;;;5048761;28;20175;-75
2023/05/27 05:25:26;;;;;;;9.00;3.87;;;;;;;;;;5051122;28;20184;-75
2023/05/27 05:27:52;;;;;;;18.23;5.83;;;;;;;;;;5031425;28;20183;-75
2023/05/27 05:30:17;;;;;;;11.83;4.93;;;;;;;;;;5046036;28;20200;-75
2023/05/27 05:32:42;;;;;;;9.70;4.60;;;;;;;;;;5052926;28;20189;-75
2023/05/27 05:35:07;;;;;;;23.37;4.40;;;;;;;;;;5043746;28;20251;-75
2023/05/27 05:37:33;;;;;;;9.47;3.77;;;;;;;;;;5039415;28;20187;-75
2023/05/27 05:39:58;;;;;;;11.57;4.17;;;;;;;;;;5036649;28;20179;-75
2023/05/27 05:42:24;;;;;;;15.33;4.83;;;;;;;;;;5048847;28;20175;-75
2023/05/27 05:44:50;;;;;;;27.83;6.33;;;;;;;;;;5039601;28;20241;-75
2023/05/27 05:47:16;;;;;;;6.27;3.50;;;;;;;;;;5036985;28;20211;-75
2023/05/27 05:49:41;;;;;;;11.00;5.07;;;;;;;;;;5034075;28;20211;-75
2023/05/27 05:52:06;;;;;;;11.70;4.73;;;;;;;;;;5052120;28;20199;-75
2023/05/27 05:54:31;;;;;;;10.20;4.10;;;;;;;;;;5050711;28;20185;-76
2023/05/27 05:56:57;;;;;;;10.30;4.87;;;;;;;;;;5033458;28;20176;-75
2023/05/27 05:59:22;;;;;;;7.47;4.40;;;;;;;;;;5047657;28;20180;-75
2023/05/27 06:01:47;;;;;;;8.80;5.10;;;;;;;;;;5044720;28;20188;-75
2023/05/27 06:04:12;;;;;;;11.83;4.60;;;;;;;;;;5040328;28;20220;-75
2023/05/27 06:06:39;;;;;;;9.10;3.80;;;;;;;;;;5051104;28;20184;-75
2023/05/27 06:09:05;;;;;;;8.97;3.93;;;;;;;;;;5051396;28;20248;-75
2023/05/27 06:11:31;;;;;;;7.33;3.83;;;;;;;;;;5049858;28;20196;-75
2023/05/27 06:13:56;;;;;;;9.77;4.53;;;;;;;;;;5047827;28;20177;-75
2023/05/27 06:16:21;;;;;;;9.83;4.23;;;;;;;;;;5031968;28;20322;-75
2023/05/27 06:18:46;;;;;;;11.17;4.50;;;;;;;;;;5046353;28;20184;-75
2023/05/27 06:21:12;;;;;;;12.37;4.97;;;;;;;;;;5029585;28;20275;-75
2023/05/27 06:23:37;;;;;;;10.13;4.43;;;;;;;;;;5035841;28;20311;-75
2023/05/27 06:26:02;;;;;;;10.20;5.03;;;;;;;;;;5037999;28;20234;-75
2023/05/27 06:28:27;;;;;;;11.80;4.40;;;;;;;;;;5050036;28;20184;-75
2023/05/27 06:30:53;;;;;;;10.13;4.40;;;;;;;;;;5034101;28;20290;-75
2023/05/27 06:33:18;;;;;;;7.80;4.30;;;;;;;;;;5047434;28;20180;-75
2023/05/27 06:35:44;;;;;;;7.97;4.10;;;;;;;;;;5050593;28;20187;-75
2023/05/27 06:38:09;;;;;;;8.20;4.17;;;;;;;;;;5035482;28;20170;-75
2023/05/27 06:40:34;;;;;;;12.73;4.43;;;;;;;;;;5038532;28;20216;-75
2023/05/27 06:42:59;;;;;;;13.97;4.90;;;;;;;;;;5034031;28;20184;-75
2023/05/27 06:45:25;;;;;;;13.27;4.20;;;;;;;;;;5032408;28;20208;-75
2023/05/27 06:47:50;;;;;;;12.97;4.73;;;;;;;;;;5047723;28;20264;-75
2023/05/27 06:50:15;;;;;;;9.30;4.40;;;;;;;;;;5030654;28;20319;-75
2023/05/27 06:52:40;;;;;;;6.30;3.70;;;;;;;;;;5027598;28;20205;-75
2023/05/27 06:55:06;;;;;;;11.67;4.13;;;;;;;;;;5049890;28;20217;-75
2023/05/27 06:57:31;;;;;;;5.80;3.73;;;;;;;;;;5047915;28;20205;-75
2023/05/27 06:59:56;;;;;;;15.27;5.27;;;;;;;;;;5050246;28;20189;-75
2023/05/27 07:02:21;;;;;;;10.63;3.93;;;;;;;;;;5029156;28;20213;-75
2023/05/27 07:04:47;;;;;;;11.63;4.90;;;;;;;;;;5032207;28;20211;-75
2023/05/27 07:07:12;;;;;;;10.50;9.30;;;;;;;;;;5042431;28;20266;-75
2023/05/27 07:09:37;;;;;;;11.53;6.63;;;;;;;;;;5043585;28;20175;-75
2023/05/27 07:12:02;;;;;;;11.30;4.80;;;;;;;;;;5030625;28;20217;-75
2023/05/27 07:14:28;;;;;;;12.90;6.20;;;;;;;;;;5029427;28;20193;-75
2023/05/27 07:16:53;;;;;;;11.03;6.80;;;;;;;;;;5030475;28;20264;-75
2023/05/27 07:19:18;;;;;;;10.37;5.30;;;;;;;;;;5031073;28;20221;-75
2023/05/27 07:21:43;;;;;;;12.27;5.03;;;;;;;;;;5033293;28;20190;-75
2023/05/27 07:24:09;;;;;;;11.40;5.90;;;;;;;;;;5048715;28;20205;-74
2023/05/27 07:26:34;;;;;;;7.33;5.17;;;;;;;;;;5048879;28;20257;-75
2023/05/27 07:29:00;;;;;;;14.43;7.53;;;;;;;;;;5030014;28;20186;-76
2023/05/27 07:31:25;;;;;;;8.40;5.10;;;;;;;;;;5032232;28;20206;-75
2023/05/27 07:33:51;;;;;;;7.97;4.80;;;;;;;;;;5030520;28;20273;-75
2023/05/27 07:36:16;;;;;;;8.23;5.10;;;;;;;;;;5043049;28;20178;-75
2023/05/27 07:38:41;;;;;;;11.77;5.03;;;;;;;;;;5046385;28;20228;-75
2023/05/27 07:41:06;;;;;;;15.00;5.73;;;;;;;;;;5050703;28;20257;-75
2023/05/27 07:43:32;;;;;;;10.63;5.37;;;;;;;;;;5032637;28;20194;-75
2023/05/27 07:45:57;;;;;;;11.50;5.03;;;;;;;;;;5029361;28;20198;-76
2023/05/27 07:48:22;;;;;;;10.17;5.30;;;;;;;;;;5048174;28;20179;-76
2023/05/27 07:50:47;;;;;;;11.20;5.40;;;;;;;;;;5048257;28;20195;-75
2023/05/27 07:53:12;;;;;;;9.53;4.83;;;;;;;;;;5045120;28;20305;-75
2023/05/27 07:55:38;;;;;;;9.83;5.17;;;;;;;;;;5038298;28;20234;-76
2023/05/27 07:58:03;;;;;;;14.43;5.53;;;;;;;;;;5031573;28;20235;-76
2023/05/27 08:00:28;;;;;;;11.10;5.57;;;;;;;;;;5047717;28;20214;-75
2023/05/27 08:02:53;;;;;;;13.73;5.67;;;;;;;;;;5029042;28;20209;-75
2023/05/27 08:05:18;;;;;;;16.50;5.17;;;;;;;;;;5047704;28;20241;-76
2023/05/27 08:07:44;;;;;;;7.20;5.33;;;;;;;;;;5030119;28;20207;-75
2023/05/27 08:10:09;;;;;;;11.90;5.30;;;;;;;;;;5042578;28;20197;-76
2023/05/27 08:12:37;;;;;;;10.10;5.57;;;;;;;;;;5032257;28;20179;-75
2023/05/27 08:15:04;;;;;;;17.33;6.40;;;;;;;;;;5062062;28;20184;-75
2023/05/27 08:17:29;;;;;;;14.53;5.33;;;;;;;;;;5028686;28;20181;-76
2023/05/27 08:19:55;;;;;;;14.80;5.50;;;;;;;;;;5033562;28;20193;-75
2023/05/27 08:22:20;;;;;;;12.40;5.87;;;;;;;;;;5034586;28;20193;-76
2023/05/27 08:24:45;;;;;;;9.50;5.30;;;;;;;;;;5042672;28;20198;-76
2023/05/27 08:27:13;;;;;;;8.63;4.70;;;;;;;;;;5032435;28;20213;-76
2023/05/27 08:29:39;;;;;;;13.60;5.70;;;;;;;;;;5032408;28;20277;-76
2023/05/27 08:32:04;;;;;;;10.57;5.67;;;;;;;;;;5036711;28;20241;-76
2023/05/27 08:34:30;;;;;;;10.87;6.23;;;;;;;;;;5047270;28;20190;-73
2023/05/27 08:36:55;;;;;;;7.40;5.07;;;;;;;;;;5036214;28;20204;-73
2023/05/27 08:39:20;;;;;;;9.43;5.23;;;;;;;;;;5050967;28;20173;-73
2023/05/27 08:41:46;;;;;;;12.60;6.70;;;;;;;;;;5047201;28;20194;-73
2023/05/27 08:44:11;;;;;;;16.63;6.20;;;;;;;;;;5046851;28;20181;-73
2023/05/27 08:46:37;;;;;;;10.33;5.10;;;;;;;;;;5039256;28;20178;-73
2023/05/27 08:49:02;;;;;;;7.67;4.60;;;;;;;;;;5032218;28;20271;-73
2023/05/27 08:51:27;;;;;;;8.20;5.53;;;;;;;;;;5036115;28;20192;-74
2023/05/27 08:53:53;;;;;;;10.20;5.03;;;;;;;;;;5031404;28;20197;-73
2023/05/27 08:56:22;;;;;;;12.27;5.30;;;;;;;;;;5048783;28;20222;-73
2023/05/27 08:58:47;;;;;;;7.10;5.53;;;;;;;;;;5046851;28;20181;-73
2023/05/27 09:01:15;;;;;;;5.67;5.00;;;;;;;;;;5036839;28;20190;-73
2023/05/27 09:03:41;;;;;;;10.30;5.10;;;;;;;;;;5030720;28;20228;-73
2023/05/27 09:06:06;;;;;;;27.17;7.00;;;;;;;;;;5040560;28;20270;-73
2023/05/27 09:08:31;;;;;;;7.70;5.37;;;;;;;;;;5034994;28;20235;-73
2023/05/27 09:10:57;;;;;;;25.87;6.57;;;;;;;;;;5045684;28;20243;-73
2023/05/27 09:13:26;;;;;;;9.60;5.77;;;;;;;;;;5034277;28;20208;-73
2023/05/27 09:15:57;;;;;;;15.13;7.47;;;;;;;;;;5032555;28;20170;-74
2023/05/27 09:18:26;;;;;;;12.07;5.80;;;;;;;;;;5053236;28;20189;-73
2023/05/27 09:20:53;;;;;;;8.87;6.03;;;;;;;;;;5049861;28;20181;-74
2023/05/27 09:23:18;;;;;;;11.10;5.20;;;;;;;;;;5038124;28;20178;-73
2023/05/27 09:25:43;;;;;;;8.97;5.10;;;;;;;;;;5041711;28;20170;-73
2023/05/27 09:28:09;;;;;;;8.70;5.47;;;;;;;;;;5027158;28;20188;-73
2023/05/27 09:30:35;;;;;;;11.93;6.40;;;;;;;;;;5035116;28;20206;-73
2023/05/27 09:33:02;;;;;;;8.20;5.60;;;;;;;;;;5035911;28;20182;-73
2023/05/27 09:35:27;;;;;;;17.57;7.40;;;;;;;;;;5041003;28;20171;-74
2023/05/27 09:37:52;;;;;;;11.57;5.43;;;;;;;;;;5059847;28;20173;-73
2023/05/27 09:40:18;;;;;;;14.57;7.10;;;;;;;;;;5049462;28;20178;-74
2023/05/27 09:42:44;;;;;;;12.67;6.10;;;;;;;;;;5044186;28;20182;-73
2023/05/27 09:45:13;;;;;;;9.13;6.00;;;;;;;;;;5029155;28;20175;-74
2023/05/27 09:47:39;;;;;;;13.73;6.37;;;;;;;;;;5049888;28;20200;-73
2023/05/27 09:50:07;;;;;;;12.77;6.03;;;;;;;;;;5035568;28;20195;-74
2023/05/27 09:52:34;;;;;;;15.10;6.40;;;;;;;;;;5035521;28;20242;-74
2023/05/27 09:54:59;;;;;;;18.10;8.47;;;;;;;;;;5051857;28;20229;-74
2023/05/27 09:57:24;;;;;;;10.87;6.10;;;;;;;;;;5050831;28;20183;-74
2023/05/27 09:59:50;;;;;;;8.93;5.90;;;;;;;;;;5034083;28;20193;-74
2023/05/27 10:02:17;;;;;;;12.23;6.17;;;;;;;;;;5033947;28;20293;-74
2023/05/27 10:04:43;;;;;;;8.90;5.13;;;;;;;;;;5047642;28;20193;-74
2023/05/27 10:07:09;;;;;;;10.47;5.60;;;;;;;;;;5038135;28;20255;-74
2023/05/27 10:09:34;;;;;;;12.97;5.90;;;;;;;;;;5052485;28;20177;-74
2023/05/27 10:11:59;;;;;;;7.00;5.17;;;;;;;;;;5038921;28;20386;-74
2023/05/27 10:14:25;;;;;;;11.87;6.53;;;;;;;;;;5040758;28;20203;-74
2023/05/27 10:16:55;;;;;;;11.87;5.93;;;;;;;;;;5033348;28;20188;-74
2023/05/27 10:19:21;;;;;;;7.87;5.63;;;;;;;;;;5052754;28;20196;-74
2023/05/27 10:21:46;;;;;;;9.60;5.43;;;;;;;;;;5053445;28;20181;-74
2023/05/27 10:24:14;;;;;;;10.80;5.10;;;;;;;;;;5039366;28;20255;-74
2023/05/27 10:26:41;;;;;;;12.07;6.47;;;;;;;;;;5051775;28;20196;-74
2023/05/27 10:29:07;;;;;;;11.83;5.70;;;;;;;;;;5050236;28;20174;-74
2023/05/27 10:31:33;;;;;;;9.03;5.73;;;;;;;;;;5034885;28;20261;-74
2023/05/27 10:33:58;;;;;;;11.67;5.60;;;;;;;;;;5033181;28;20182;-74
2023/05/27 10:36:31;;;;;;;11.40;5.33;;;;;;;;;;5051047;28;20173;-74
2023/05/27 10:39:04;;;;;;;9.77;5.30;;;;;;;;;;5037584;28;20187;-73
2023/05/27 10:41:38;;;;;;;9.23;5.57;;;;;;;;;;5034665;28;20200;-74
2023/05/27 10:44:04;;;;;;;12.00;6.40;;;;;;;;;;5033859;28;20172;-74
2023/05/27 10:46:37;;;;;;;11.07;5.85;;;;;;;;;;5029453;28;20231;-74
2023/05/27 10:49:16;;;;;;;15.15;5.78;;;;;;;;;;5035241;28;20211;-74
2023/05/27 10:51:47;;;;;;;17.13;5.43;;;;;;;;;;5051167;28;20246;-74
2023/05/27 10:54:13;;;;;;;7.43;4.93;;;;;;;;;;5052460;28;20174;-74
2023/05/27 10:56:49;;;;;;;12.57;7.28;;;;;;;;;;5049888;28;20259;-74
2023/05/27 10:59:19;;;;;;;7.55;5.47;;;;;;;;;;5029981;28;20176;-74
2023/05/27 11:01:44;;;;;;;11.05;5.78;;;;;;;;;;5047167;28;20262;-73
2023/05/27 11:04:10;;;;;;;13.18;5.78;;;;;;;;;;5033487;28;20320;-74
2023/05/27 11:06:35;;;;;;;13.73;6.35;;;;;;;;;;5037446;28;20181;-74
2023/05/27 11:09:00;;;;;;;8.40;5.80;;;;;;;;;;5032399;28;20257;-74
2023/05/27 11:11:26;;;;;;;10.18;5.85;;;;;;;;;;5031675;28;20218;-74
2023/05/27 11:13:51;;;;;;;12.48;5.72;;;;;;;;;;5049445;28;20257;-74
2023/05/27 11:16:17;;;;;;;10.77;5.65;;;;;;;;;;5048522;28;20217;-74
2023/05/27 11:18:46;;;;;;;7.53;5.40;;;;;;;;;;5032580;28;20208;-74
2023/05/27 11:21:11;;;;;;;15.55;5.30;;;;;;;;;;5033400;28;20185;-74
2023/05/27 11:23:37;;;;;;;11.07;6.07;;;;;;;;;;5031108;28;20189;-74
2023/05/27 11:26:02;;;;;;;12.15;5.75;;;;;;;;;;5027654;28;20179;-74
2023/05/27 11:28:28;;;;;;;25.65;6.80;;;;;;;;;;5044280;28;20178;-74
2023/05/27 11:31:02;;;;;;;8.98;6.43;;;;;;;;;;5048701;28;20221;-74
2023/05/27 11:33:31;;;;;;;11.32;5.93;;;;;;;;;;5028909;28;20182;-74
2023/05/27 11:36:06;;;;;;;11.93;6.43;;;;;;;;;;5032205;28;20178;-74
2023/05/27 11:38:45;;;;;;;11.18;4.88;;;;;;;;;;5043341;28;20185;-74
2023/05/27 11:41:10;;;;;;;9.75;5.78;;;;;;;;;;5024172;28;20257;-74
2023/05/27 11:43:35;;;;;;;11.90;6.28;;;;;;;;;;5028455;28;20277;-74
2023/05/27 11:46:03;;;;;;;10.00;5.65;;;;;;;;;;5030434;28;20182;-74
2023/05/27 11:48:29;;;;;;;8.80;5.63;;;;;;;;;;5048649;28;20186;-74
2023/05/27 11:50:54;;;;;;;10.52;5.28;;;;;;;;;;5050036;28;20284;-74
2023/05/27 11:53:19;;;;;;;8.32;5.40;;;;;;;;;;5034699;28;20185;-74
2023/05/27 11:55:45;;;;;;;8.45;5.80;;;;;;;;;;5031097;28;20215;-74
2023/05/27 11:58:10;;;;;;;12.80;6.03;;;;;;;;;;5026668;28;20313;-74
2023/05/27 12:00:35;;;;;;;8.93;6.53;;;;;;;;;;5028976;28;20261;-74
2023/05/27 12:03:00;;;;;;;9.25;6.22;;;;;;;;;;5029512;28;20333;-74
2023/05/27 12:05:26;;;;;;;7.45;4.97;;;;;;;;;;5029081;28;20182;-74
2023/05/27 12:07:51;;;;;;;10.75;5.70;;;;;;;;;;5029069;28;20186;-74
2023/05/27 12:10:16;;;;;;;8.95;5.43;;;;;;;;;;5029391;28;20281;-74
2023/05/27 12:12:44;;;;;;;8.75;5.45;;;;;;;;;;5028469;28;20178;-74
2023/05/27 12:15:09;;;;;;;13.05;5.30;;;;;;;;;;5026122;28;20257;-74
2023/05/27 12:17:34;;;;;;;7.88;5.32;;;;;;;;;;5043892;28;20210;-74
2023/05/27 12:19:59;;;;;;;8.23;5.60;;;;;;;;;;5025251;28;20254;-74
2023/05/27 12:22:25;;;;;;;8.40;6.90;;;;;;;;;;5029071;28;20177;-74
2023/05/27 12:24:51;;;;;;;14.77;6.40;;;;;;;;;;5027587;28;20179;-74
2023/05/27 12:27:17;;;;;;;7.63;5.57;;;;;;;;;;5029921;28;20214;-74
2023/05/27 12:29:42;;;;;;;15.60;7.43;;;;;;;;;;5026908;28;20293;-74
2023/05/27 12:32:07;;;;;;;18.13;6.90;;;;;;;;;;5027345;28;20213;-74
2023/05/27 12:34:32;;;;;;;8.73;5.45;;;;;;;;;;5041406;28;20224;-74
2023/05/27 12:36:57;;;;;;;8.73;5.60;;;;;;;;;;5029569;28;20183;-74
2023/05/27 12:39:23;;;;;;;8.98;5.18;;;;;;;;;;5030040;28;20179;-74
2023/05/27 12:41:48;;;;;;;10.82;6.07;;;;;;;;;;5025968;28;20186;-74
2023/05/27 12:44:13;;;;;;;46.20;8.73;;;;;;;;;;5022841;28;20274;-74
2023/05/27 12:46:38;;;;;;;10.48;6.78;;;;;;;;;;5024554;28;20237;-74
2023/05/27 12:49:03;;;;;;;15.43;6.93;;;;;;;;;;5026122;28;20197;-74
2023/05/27 12:51:30;;;;;;;9.48;5.63;;;;;;;;;;5026397;28;20248;-74
2023/05/27 12:53:55;;;;;;;8.15;5.50;;;;;;;;;;5027302;28;20186;-74
2023/05/27 12:56:21;;;;;;;17.20;6.85;;;;;;;;;;5043686;28;20221;-74
2023/05/27 12:58:47;;;;;;;8.70;5.78;;;;;;;;;;5049905;28;20281;-74
2023/05/27 13:01:12;;;;;;;8.38;5.93;;;;;;;;;;5046921;28;20253;-74
2023/05/27 13:03:38;;;;;;;8.73;6.82;;;;;;;;;;5047191;28;20205;-74
2023/05/27 13:06:03;;;;;;;6.95;5.53;;;;;;;;;;5034103;28;20181;-74
2023/05/27 13:08:28;;;;;;;7.05;5.22;;;;;;;;;;5047186;28;20170;-74
2023/05/27 13:10:54;;;;;;;10.90;5.78;;;;;;;;;;5048274;28;20198;-75
2023/05/27 13:13:19;;;;;;;9.90;5.90;;;;;;;;;;5052341;28;20171;-75
2023/05/27 13:15:44;;;;;;;9.27;4.88;;;;;;;;;;5031334;28;20162;-75
2023/05/27 13:18:10;;;;;;;10.57;5.20;;;;;;;;;;5051900;28;20186;-75
2023/05/27 13:20:35;;;;;;;9.32;5.80;;;;;;;;;;5051813;28;20181;-75
2023/05/27 13:23:01;;;;;;;12.07;6.82;;;;;;;;;;5050638;28;20186;-75
2023/05/27 13:25:28;;;;;;;16.42;6.63;;;;;;;;;;5042281;28;20194;-75
2023/05/27 13:27:54;;;;;;;8.98;5.55;;;;;;;;;;5039304;28;20185;-75
2023/05/27 13:30:20;;;;;;;13.40;5.63;;;;;;;;;;5040172;28;20198;-75
2023/05/27 13:32:45;;;;;;;9.68;5.20;;;;;;;;;;5031834;28;20266;-75
2023/05/27 13:35:11;;;;;;;9.40;5.22;;;;;;;;;;5048592;28;20194;-76
2023/05/27 13:37:37;;;;;;;6.65;5.20;;;;;;;;;;5038319;28;20249;-75
2023/05/27 13:40:02;;;;;;;11.13;5.25;;;;;;;;;;5031070;28;20193;-75
2023/05/27 13:42:27;;;;;;;10.43;5.90;;;;;;;;;;5029483;28;20242;-76
2023/05/27 13:44:52;;;;;;;7.53;5.20;;;;;;;;;;5035410;28;20185;-75
2023/05/27 13:47:18;;;;;;;5.95;4.95;;;;;;;;;;5033882;28;20304;-75
2023/05/27 13:49:43;;;;;;;10.20;6.43;;;;;;;;;;5034369;28;20201;-75
2023/05/27 13:52:08;;;;;;;15.43;6.85;;;;;;;;;;5035896;28;20202;-75
2023/05/27 13:54:33;;;;;;;8.95;5.63;;;;;;;;;;5034064;28;20182;-75
2023/05/27 13:56:59;;;;;;;9.23;5.85;;;;;;;;;;5029685;28;20236;-75
2023/05/27 13:59:24;;;;;;;11.10;6.40;;;;;;;;;;5034471;28;20181;-76
2023/05/27 14:01:53;;;;;;;9.07;5.70;;;;;;;;;;5040698;28;20185;-75
2023/05/27 14:04:20;;;;;;;8.85;6.32;;;;;;;;;;5039570;28;20210;-75
2023/05/27 14:06:46;;;;;;;14.35;5.15;;;;;;;;;;5051169;28;20232;-75
2023/05/27 14:09:11;;;;;;;9.70;5.35;;;;;;;;;;5042404;28;20174;-75
2023/05/27 14:11:36;;;;;;;8.07;5.03;;;;;;;;;;5050910;28;20206;-75
2023/05/27 14:14:01;;;;;;;7.15;5.07;;;;;;;;;;5028398;28;20273;-75
2023/05/27 14:16:26;;;;;;;8.70;5.50;;;;;;;;;;5043707;28;20181;-76
2023/05/27 14:18:52;;;;;;;11.07;6.07;;;;;;;;;;5036768;28;20201;-75
2023/05/27 14:21:17;;;;;;;10.07;6.00;;;;;;;;;;5048713;28;20188;-75
2023/05/27 14:23:43;;;;;;;9.77;5.65;;;;;;;;;;5049206;28;20179;-75
2023/05/27 14:26:08;;;;;;;22.20;6.50;;;;;;;;;;5050712;28;20182;-75
2023/05/27 14:28:34;;;;;;;6.97;5.35;;;;;;;;;;5052712;28;20174;-74